Time;durP1;ratioP1;P1;durP2;ratioP2;P2;SDS_P1;SDS_P2;PMS_P1;PMS_P2;Temp;Humidity;BMP_temperature;BMP_pressure;BME280_temperature;BME280_humidity;BME280_pressure;Samples;Min_cycle;Max_cycle;Signal;HPM_P1;HPM_P2
2021/05/08 00:01:46;;;;;;;;;;;;;;;;;;3541823;40;20282;-70
2021/05/08 00:04:12;;;;;;;;;;;;;;;;;;3532902;40;19933;-69
2021/05/08 00:06:38;;;;;;;;;;;;;;;;;;3532601;40;19989;-71
2021/05/08 00:09:04;;;;;;;;;;;;;;;;;;3540485;40;20021;-71
2021/05/08 00:11:30;;;;;;;;;;;;;;;;;;3533118;40;20294;-71
2021/05/08 00:13:56;;;;;;;;;;;;;;;;;;3532995;40;19926;-71
2021/05/08 00:16:22;;;;;;;;;;;;;;;;;;3533107;40;19926;-70
2021/05/08 00:18:48;;;;;;;;;;;;;;;;;;3533075;40;19934;-71
2021/05/08 00:21:14;;;;;;;;;;;;;;;;;;3553008;40;19925;-70
2021/05/08 00:23:39;;;;;;;;;;;;;;;;;;3563250;40;19925;-71
2021/05/08 00:26:05;;;;;;;;;;;;;;;;;;3562755;40;19945;-71
2021/05/08 00:28:31;;;;;;;;;;;;;;;;;;3572649;40;19950;-71
2021/05/08 00:30:57;;;;;;;;;;;;;;;;;;3572855;40;19925;-71
2021/05/08 00:33:23;;;;;;;;;;;;;;;;;;3572439;40;19929;-71
2021/05/08 00:35:49;;;;;;;;;;;;;;;;;;3562967;40;19931;-72
2021/05/08 00:38:15;;;;;;;;;;;;;;;;;;3562909;40;19925;-71
2021/05/08 00:40:41;;;;;;;;;;;;;;;;;;3562833;40;20240;-70
2021/05/08 00:43:07;;;;;;;;;;;;;;;;;;3562608;40;19925;-71
2021/05/08 00:45:33;;;;;;;;;;;;;;;;;;3571742;40;20040;-71
2021/05/08 00:47:59;;;;;;;;;;;;;;;;;;3572558;40;20007;-71
2021/05/08 00:50:25;;;;;;;;;;;;;;;;;;3572275;40;19935;-71
2021/05/08 00:52:50;;;;;;;;;;;;;;;;;;3572187;40;19932;-71
2021/05/08 00:55:16;;;;;;;;;;;;;;;;;;3572412;40;19925;-71
2021/05/08 00:57:42;;;;;;;;;;;;;;;;;;3572681;40;19925;-70
2021/05/08 01:00:08;;;;;;;;;;;;;;;;;;3572181;40;19924;-70
2021/05/08 01:02:34;;;;;;;;;;;;;;;;;;3589233;23;20210;-72
2021/05/08 01:05:00;;;;;;;;;;;;;;;;;;3566681;40;19929;-72
2021/05/08 01:07:26;;;;;;;;;;;;;;;;;;3567839;40;19929;-72
2021/05/08 01:09:52;;;;;;;;;;;;;;;;;;3569117;40;19965;-71
2021/05/08 01:12:18;;;;;;;;;;;;;;;;;;3558760;40;19952;-72
2021/05/08 01:14:44;;;;;;;;;;;;;;;;;;3571366;40;20274;-72
2021/05/08 01:17:10;;;;;;;;;;;;;;;;;;3573011;40;19940;-71
2021/05/08 01:19:36;;;;;;;;;;;;;;;;;;3572786;40;19939;-72
2021/05/08 01:22:02;;;;;;;;;;;;;;;;;;3569807;40;19935;-71
2021/05/08 01:24:28;;;;;;;;;;;;;;;;;;3572777;40;19932;-72
2021/05/08 01:26:54;;;;;;;;;;;;;;;;;;3571766;40;19936;-72
2021/05/08 01:29:19;;;;;;;;;;;;;;;;;;3569533;40;19929;-72
2021/05/08 01:31:45;;;;;;;;;;;;;;;;;;3569947;40;20284;-72
2021/05/08 01:34:11;;;;;;;;;;;;;;;;;;3570474;40;19929;-71
2021/05/08 01:36:37;;;;;;;;;;;;;;;;;;3573023;40;19959;-71
2021/05/08 01:39:03;;;;;;;;;;;;;;;;;;3574381;40;19968;-71
2021/05/08 01:41:29;;;;;;;;;;;;;;;;;;3563472;40;19937;-73
2021/05/08 01:43:55;;;;;;;;;;;;;;;;;;3569450;40;19936;-71
2021/05/08 01:46:21;;;;;;;;;;;;;;;;;;3569977;40;19935;-72
2021/05/08 01:48:47;;;;;;;;;;;;;;;;;;3579344;40;20039;-72
2021/05/08 01:51:13;;;;;;;;;;;;;;;;;;3572093;40;19928;-71
2021/05/08 01:53:39;;;;;;;;;;;;;;;;;;3567300;40;19964;-72
2021/05/08 01:56:05;;;;;;;;;;;;;;;;;;3578058;40;20197;-69
2021/05/08 01:58:31;;;;;;;;;;;;;;;;;;3570082;40;19935;-72
2021/05/08 02:00:57;;;;;;;;;;;;;;;;;;3572087;40;20197;-70
2021/05/08 02:03:23;;;;;;;;;;;;;;;;;;3571708;40;20289;-69
2021/05/08 02:05:49;;;;;;;;;;;;;;;;;;3569989;40;19935;-69
2021/05/08 02:08:14;;;;;;;;;;;;;;;;;;3572884;40;19936;-68
2021/05/08 02:10:40;;;;;;;;;;;;;;;;;;3569937;40;20405;-69
2021/05/08 02:13:06;;;;;;;;;;;;;;;;;;3575704;40;19933;-69
2021/05/08 02:15:32;;;;;;;;;;;;;;;;;;3571490;40;20193;-69
2021/05/08 02:17:58;;;;;;;;;;;;;;;;;;3570130;40;19929;-69
2021/05/08 02:20:26;;;;;;;;;;;;;;;;;;3570288;40;19929;-70
2021/05/08 02:22:52;;;;;;;;;;;;;;;;;;3575281;40;19928;-69
2021/05/08 02:25:18;;;;;;;;;;;;;;;;;;3570607;40;19940;-69
2021/05/08 02:27:44;;;;;;;;;;;;;;;;;;3560656;40;19936;-69
2021/05/08 02:30:10;;;;;;;;;;;;;;;;;;3571002;40;19929;-69
2021/05/08 02:32:36;;;;;;;;;;;;;;;;;;3566663;40;19936;-69
2021/05/08 02:35:02;;;;;;;;;;;;;;;;;;3570091;40;20292;-69
2021/05/08 02:37:28;;;;;;;;;;;;;;;;;;3569684;40;19929;-62
2021/05/08 02:39:54;;;;;;;;;;;;;;;;;;3570934;40;19936;-70
2021/05/08 02:42:20;;;;;;;;;;;;;;;;;;3560550;40;19976;-69
2021/05/08 02:44:46;;;;;;;;;;;;;;;;;;3569784;40;20014;-68
2021/05/08 02:47:18;;;;;;;;;;;;;;;;;;3569075;40;20198;-69
2021/05/08 02:49:44;;;;;;;;;;;;;;;;;;3569176;40;20215;-69
2021/05/08 02:52:10;;;;;;;;;;;;;;;;;;3568742;40;19955;-69
2021/05/08 02:54:36;;;;;;;;;;;;;;;;;;3569653;40;20011;-71
2021/05/08 02:57:02;;;;;;;;;;;;;;;;;;3569870;40;19951;-69
2021/05/08 02:59:28;;;;;;;;;;;;;;;;;;3569577;40;19935;-68
2021/05/08 03:01:54;;;;;;;;;;;;;;;;;;3560548;40;19925;-68
2021/05/08 03:04:20;;;;;;;;;;;;;;;;;;3569993;40;19932;-71
2021/05/08 03:06:46;;;;;;;;;;;;;;;;;;3560753;40;19925;-71
2021/05/08 03:09:11;;;;;;;;;;;;;;;;;;3570409;40;19925;-71
2021/05/08 03:11:37;;;;;;;;;;;;;;;;;;3561853;40;19932;-71
2021/05/08 03:14:04;;;;;;;;;;;14.20;47.80;;;;;;3571407;40;20269;-71
2021/05/08 03:16:30;;;;;;;;;;;12.60;54.90;;;;;;3571043;40;19941;-71
2021/05/08 03:18:55;;;;;;;;;;;12.50;55.00;;;;;;3571326;40;20296;-70
2021/05/08 03:21:21;;;;;;;;;;;;;;;;;;3575497;40;19969;-71
2021/05/08 03:23:47;;;;;;;;;;;;;;;;;;3571090;40;19925;-71
2021/05/08 03:26:13;;;;;;;;;;;;;;;;;;3571171;40;19925;-71
2021/05/08 03:28:39;;;;;;;;;;;;;;;;;;3571686;40;19958;-71
2021/05/08 03:31:05;;;;;;;;;;;;;;;;;;3565548;40;19952;-70
2021/05/08 03:33:31;;;;;;;;;;;;;;;;;;3574513;40;19925;-71
2021/05/08 03:35:57;;;;;;;;;;;;;;;;;;3571947;40;19929;-74
2021/05/08 03:38:23;;;;;;;;;;;;;;;;;;3570096;40;19925;-71
2021/05/08 03:40:49;;;;;;;;;;;;;;;;;;3571943;40;19928;-70
2021/05/08 03:43:15;;;;;;;;;;;;;;;;;;3571014;40;20182;-71
2021/05/08 03:45:40;;;;;;;;;;;;;;;;;;3570374;40;19925;-72
2021/05/08 03:48:06;;;;;;;;;;;;;;;;;;3571125;40;19932;-72
2021/05/08 03:50:32;;;;;;;;;;;;;;;;;;3569847;40;19947;-71
2021/05/08 03:52:58;;;;;;;;;;;;;;;;;;3576872;40;19932;-71
2021/05/08 03:55:25;;;;;;;;;;;;;;;;;;3569861;40;20275;-72
2021/05/08 03:57:51;;;;;;;;;;;;;;;;;;3567468;40;19925;-71
2021/05/08 04:00:16;;;;;;;;;;;;;;;;;;3571309;40;19924;-72
2021/05/08 04:02:42;;;;;;;;;;;;;;;;;;3561470;40;20060;-70
2021/05/08 04:05:08;;;;;;;;;;;;;;;;;;3571317;40;19936;-71
2021/05/08 04:07:34;;;;;;;;;;;;;;;;;;3570785;40;20263;-71
2021/05/08 04:10:00;;;;;;;;;;;;;;;;;;3571182;40;19932;-71
2021/05/08 04:12:26;;;;;;;;;;;;;;;;;;3573293;40;19940;-72
2021/05/08 04:14:52;;;;;;;;;;;;;;;;;;3571888;40;20027;-71
2021/05/08 04:17:18;;;;;;;;;;;;;;;;;;3574306;40;19972;-70
2021/05/08 04:19:44;;;;;;;;;;;;;;;;;;3572099;40;20267;-71
2021/05/08 04:22:10;;;;;;;;;;;;;;;;;;3561294;40;19936;-71
2021/05/08 04:24:36;;;;;;;;;;;;;;;;;;3561509;40;19976;-71
2021/05/08 04:27:02;;;;;;;;;;;;;;;;;;3570862;40;19933;-71
2021/05/08 04:29:28;;;;;;;;;;;;;;;;;;3571604;40;19925;-71
2021/05/08 04:31:54;;;;;;;;;;;;;;;;;;3570655;40;19931;-71
2021/05/08 04:34:20;;;;;;;;;;;;;;;;;;3568472;40;19973;-71
2021/05/08 04:36:46;;;;;;;;;;;;;;;;;;3575608;40;20285;-71
2021/05/08 04:39:12;;;;;;;;;;;;;;;;;;3563177;40;20162;-72
2021/05/08 04:41:38;;;;;;;;;;;;;;;;;;3570785;40;19925;-71
2021/05/08 04:44:04;;;;;;;;;;;;;;;;;;3570600;40;19937;-71
2021/05/08 04:46:30;;;;;;;;;;;;;;;;;;3569943;40;19966;-72
2021/05/08 04:48:56;;;;;;;;;;;;;;;;;;3561797;40;20019;-70
2021/05/08 04:51:22;;;;;;;;;;;;;;;;;;3571812;40;19933;-71
2021/05/08 04:53:51;;;;;;;;;;;;;;;;;;3561533;40;19933;-71
2021/05/08 04:56:17;;;;;;;;;;;;;;;;;;3576693;40;20273;-70
2021/05/08 04:58:43;;;;;;;;;;;;;;;;;;3570101;40;19932;-72
2021/05/08 05:01:09;;;;;;;;;;;;;;;;;;3570290;40;20363;-71
2021/05/08 05:03:35;;;;;;;;;;;;;;;;;;3570332;40;19932;-71
2021/05/08 05:06:01;;;;;;;;;;;;;;;;;;3570927;40;19965;-72
2021/05/08 05:08:27;;;;;;;;;;;;;;;;;;3561193;40;19932;-71
2021/05/08 05:10:54;;;;;;;;;;;;;;;;;;3570528;40;19925;-69
2021/05/08 05:13:20;;;;;;;;;;;;;;;;;;3577042;40;19931;-69
2021/05/08 05:15:46;;;;;;;;;;;;;;;;;;3577683;40;19925;-69
2021/05/08 05:18:12;;;;;;;;;;;;;;;;;;3576123;40;19932;-68
2021/05/08 05:20:38;;;;;;;;;;;;;;;;;;3560166;40;19929;-69
2021/05/08 05:23:04;;;;;;;;;;;;;;;;;;3569285;40;19969;-70
2021/05/08 05:25:30;;;;;;;;;;;;;;;;;;3566954;40;19925;-68
2021/05/08 05:27:56;;;;;;;;;;;;;;;;;;3570549;40;19925;-68
2021/05/08 05:30:22;;;;;;;;;;;;;;;;;;3570415;40;20026;-68
2021/05/08 05:32:48;;;;;;;;;;;;;;;;;;3569809;40;19932;-69
2021/05/08 05:35:14;;;;;;;;;;;;;;;;;;3570305;40;19934;-69
2021/05/08 05:37:40;;;;;;;;;;;;;;;;;;3568928;40;19925;-68
2021/05/08 05:40:08;;;;;;;;;;;10.90;68.10;;;;;;3571238;40;19925;-70
2021/05/08 05:42:33;;;;;;;;;;;11.10;73.70;;;;;;3560786;40;19940;-69
2021/05/08 05:44:59;;;;;;;;;;;11.20;72.10;;;;;;3565062;40;20181;-69
2021/05/08 05:47:27;;;;;;;;;;;11.20;72.50;;;;;;3554564;40;19941;-70
2021/05/08 05:49:53;;;;;;;;;;;11.30;72.50;;;;;;3570092;40;19951;-69
2021/05/08 05:52:19;;;;;;;;;;;;;;;;;;3571209;40;20198;-70
2021/05/08 05:54:45;;;;;;;;;;;;;;;;;;3569107;40;19931;-69
2021/05/08 05:57:11;;;;;;;;;;;;;;;;;;3561043;40;19932;-69
2021/05/08 05:59:37;;;;;;;;;;;;;;;;;;3570824;40;19925;-69
2021/05/08 06:02:03;;;;;;;;;;;;;;;;;;3560688;40;19929;-69
2021/05/08 06:04:29;;;;;;;;;;;;;;;;;;3569624;40;19940;-68
2021/05/08 06:06:55;;;;;;;;;;;;;;;;;;3570546;40;19937;-69
2021/05/08 06:09:21;;;;;;;;;;;;;;;;;;3570187;40;19954;-69
2021/05/08 06:11:47;;;;;;;;;;;;;;;;;;3569216;40;19956;-68
2021/05/08 06:14:13;;;;;;;;;;;;;;;;;;3579973;40;19936;-69
2021/05/08 06:16:39;;;;;;;;;;;;;;;;;;3573717;40;19936;-69
2021/05/08 06:19:04;;;;;;;;;;;;;;;;;;3568812;40;19940;-69
2021/05/08 06:21:30;;;;;;;;;;;;;;;;;;3569842;40;19949;-70
2021/05/08 06:23:56;;;;;;;;;;;;;;;;;;3570897;40;19933;-70
2021/05/08 06:26:22;;;;;;;;;;;;;;;;;;3560797;40;19944;-70
2021/05/08 06:28:48;;;;;;;;;;;;;;;;;;3569654;40;20197;-70
2021/05/08 06:31:14;;;;;;;;;;;;;;;;;;3560452;40;20011;-69
2021/05/08 06:33:40;;;;;;;;;;;;;;;;;;3569456;40;20014;-69
2021/05/08 06:36:06;;;;;;;;;;;;;;;;;;3569170;40;19929;-69
2021/05/08 06:38:32;;;;;;;;;;;;;;;;;;3569731;40;19929;-70
2021/05/08 06:40:58;;;;;;;;;;;;;;;;;;3570867;40;20278;-69
2021/05/08 06:43:24;;;;;;;;;;;;;;;;;;3571066;40;19936;-69
2021/05/08 06:45:50;;;;;;;;;;;;;;;;;;3571379;40;19929;-69
2021/05/08 06:48:16;;;;;;;;;;;;;;;;;;3569206;40;20260;-70
2021/05/08 06:50:42;;;;;;;;;;;;;;;;;;3572905;40;20005;-70
2021/05/08 06:53:08;;;;;;;;;;;;;;;;;;3578357;40;20011;-69
2021/05/08 06:55:34;;;;;;;;;;;;;;;;;;3563485;40;20021;-70
2021/05/08 06:58:00;;;;;;;;;;;11.40;71.50;;;;;;3578214;40;20012;-71
2021/05/08 07:00:26;;;;;;;;;;;13.80;79.50;;;;;;3561708;40;20230;-72
2021/05/08 07:02:52;;;;;;;;;;;;;;;;;;3571109;40;19933;-71
2021/05/08 07:05:18;;;;;;;;;;;;;;;;;;3574568;40;19939;-71
2021/05/08 07:07:44;;;;;;;;;;;;;;;;;;3574337;40;19925;-70
2021/05/08 07:10:10;;;;;;;;;;;;;;;;;;3570982;40;19976;-72
2021/05/08 07:12:35;;;;;;;;;;;;;;;;;;3574598;40;20274;-70
2021/05/08 07:15:01;;;;;;;;;;;;;;;;;;3565454;40;19932;-70
2021/05/08 07:17:27;;;;;;;;;;;;;;;;;;3561677;40;19925;-70
2021/05/08 07:19:53;;;;;;;;;;;;;;;;;;3570945;40;19948;-70
2021/05/08 07:22:19;;;;;;;;;;;;;;;;;;3561501;40;19937;-72
2021/05/08 07:24:45;;;;;;;;;;;;;;;;;;3571042;40;19939;-70
2021/05/08 07:27:11;;;;;;;;;;;;;;;;;;3569500;40;19933;-70
2021/05/08 07:29:37;;;;;;;;;;;;;;;;;;3561937;40;19925;-71
2021/05/08 07:32:03;;;;;;;;;;;;;;;;;;3561306;40;19932;-72
2021/05/08 07:34:29;;;;;;;;;;;;;;;;;;3575907;40;19980;-71
2021/05/08 07:36:55;;;;;;;;;;;;;;;;;;3571751;40;20278;-70
2021/05/08 07:39:21;;;;;;;;;;;;;;;;;;3562519;40;19925;-70
2021/05/08 07:41:47;;;;;;;;;;;;;;;;;;3573836;40;19925;-70
2021/05/08 07:44:12;;;;;;;;;;;;;;;;;;3569472;40;19937;-71
2021/05/08 07:46:38;;;;;;;;;;;;;;;;;;3569694;40;19969;-70
2021/05/08 07:49:04;;;;;;;;;;;;;;;;;;3572481;40;19936;-70
2021/05/08 07:51:30;;;;;;;;;;;;;;;;;;3571021;40;19925;-70
2021/05/08 07:53:56;;;;;;;;;;;;;;;;;;3570786;40;19952;-71
2021/05/08 07:56:22;;;;;;;;;;;;;;;;;;3570764;40;20190;-70
2021/05/08 07:58:48;;;;;;;;;;;;;;;;;;3571127;40;19932;-76
2021/05/08 08:01:14;;;;;;;;;;;;;;;;;;3571276;40;20293;-71
2021/05/08 08:03:40;;;;;;;;;;;;;;;;;;3576322;40;19925;-70
2021/05/08 08:06:06;;;;;;;;;;;;;;;;;;3570549;40;20009;-73
2021/05/08 08:08:32;;;;;;;;;;;;;;;;;;3570541;40;19937;-71
2021/05/08 08:10:59;;;;;;;;;;;14.00;79.60;;;;;;3570310;40;19969;-71
2021/05/08 08:13:25;;;;;;;;;;;;;;;;;;3570609;40;20319;-71
2021/05/08 08:15:50;;;;;;;;;;;;;;;;;;3563132;40;20052;-73
2021/05/08 08:18:16;;;;;;;;;;;14.90;89.00;;;;;;3572245;40;19929;-71
2021/05/08 08:20:42;;;;;;;;;;;14.90;86.50;;;;;;3566716;40;19936;-71
2021/05/08 08:23:08;;;;;;;;;;;;;;;;;;3565975;40;19953;-71
2021/05/08 08:25:34;;;;;;;;;;;;;;;;;;3571425;40;19925;-71
2021/05/08 08:27:59;;;;;;;;;;;;;;;;;;3570641;40;20187;-72
2021/05/08 08:30:25;;;;;;;;;;;;;;;;;;3561009;40;20281;-70
2021/05/08 08:32:51;;;;;;;;;;;;;;;;;;3576212;40;19925;-71
2021/05/08 08:35:17;;;;;;;;;;;;;;;;;;3562330;40;19933;-73
2021/05/08 08:37:43;;;;;;;;;;;;;;;;;;3561081;40;19947;-71
2021/05/08 08:40:09;;;;;;;;;;;;;;;;;;3561300;40;19937;-70
2021/05/08 08:42:35;;;;;;;;;;;;;;;;;;3572609;40;19937;-71
2021/05/08 08:45:01;;;;;;;;;;;;;;;;;;3570419;40;19925;-70
2021/05/08 08:47:30;;;;;;;;;;;;;;;;;;3570347;40;20266;-70
2021/05/08 08:49:56;;;;;;;;;;;;;;;;;;3566123;40;20360;-70
2021/05/08 08:52:22;;;;;;;;;;;;;;;;;;3571941;40;19937;-70
2021/05/08 08:54:48;;;;;;;;;;;;;;;;;;3570743;40;19933;-70
2021/05/08 08:57:14;;;;;;;;;;;;;;;;;;3570458;40;19925;-70
2021/05/08 08:59:39;;;;;;;;;;;;;;;;;;3570293;40;19933;-70
2021/05/08 09:02:05;;;;;;;;;;;;;;;;;;3570229;40;20014;-70
2021/05/08 09:04:31;;;;;;;;;;;;;;;;;;3560822;40;19933;-71
2021/05/08 09:06:58;;;;;;;;;;;15.00;88.30;;;;;;3569851;40;20026;-72
2021/05/08 09:09:24;;;;;;;;;;;;;;;;;;3569902;40;19945;-71
2021/05/08 09:11:50;;;;;;;;;;;;;;;;;;3570447;40;19936;-70
2021/05/08 09:14:16;;;;;;;;;;;;;;;;;;3577060;40;19933;-70
2021/05/08 09:16:56;;;;;;;;;;;18.30;80.90;;;;;;3570314;40;19929;-71
2021/05/08 09:19:22;;;;;;;;;;;;;;;;;;3566617;40;20038;-71
2021/05/08 09:21:48;;;;;;;;;;;18.80;79.70;;;;;;3572695;40;19941;-70
2021/05/08 09:24:14;;;;;;;;;;;;;;;;;;3569901;40;19929;-71
2021/05/08 09:26:42;;;;;;;;;;;;;;;;;;3570081;40;19926;-70
2021/05/08 09:29:08;;;;;;;;;;;;;;;;;;3568756;40;19932;-70
2021/05/08 09:31:49;;;;;;;;;;;18.70;79.40;;;;;;3568945;40;19925;-70
2021/05/08 09:34:17;;;;;;;;;;;19.10;78.00;;;;;;3571752;40;19943;-70
2021/05/08 09:36:48;;;;;;;;;;;19.20;78.80;;;;;;3574510;40;19929;-70
2021/05/08 09:39:25;;;;;;;;;;;19.40;76.90;;;;;;3568956;40;20290;-70
2021/05/08 09:41:51;;;;;;;;;;;19.30;75.90;;;;;;3562283;40;19969;-71
2021/05/08 09:44:17;;;;;;;;;;;19.10;78.20;;;;;;3571797;40;19943;-72
2021/05/08 09:46:44;;;;;;;;;;;19.10;77.60;;;;;;3578935;40;19929;-70
2021/05/08 09:49:10;;;;;;;;;;;19.20;76.20;;;;;;3572128;40;19933;-70
2021/05/08 09:51:36;;;;;;;;;;;19.10;77.60;;;;;;3579780;40;19929;-71
2021/05/08 09:54:13;;;;;;;;;;;18.90;78.30;;;;;;3564359;40;20139;-70
2021/05/08 09:56:39;;;;;;;;;;;19.00;78.50;;;;;;3572686;40;19937;-71
2021/05/08 09:59:23;;;;;;;;;;;19.00;76.90;;;;;;3573376;40;19953;-71
2021/05/08 10:02:09;;;;;;;;;;;19.30;77.80;;;;;;3563727;40;20274;-70
2021/05/08 10:04:36;;;;;;;;;;;;;;;;;;3562216;40;19969;-70
2021/05/08 10:07:06;;;;;;;;;;;19.50;75.50;;;;;;3560009;40;19929;-70
2021/05/08 10:09:31;;;;;;;;;;;19.90;74.60;;;;;;3559792;40;19957;-70
2021/05/08 10:11:57;;;;;;;;;;;19.90;73.00;;;;;;3567710;40;19934;-71
2021/05/08 10:14:23;;;;;;;;;;;19.80;73.30;;;;;;3566113;40;19933;-70
2021/05/08 10:16:50;;;;;;;;;;;19.60;75.00;;;;;;3560105;40;20199;-70
2021/05/08 10:19:16;;;;;;;;;;;19.70;73.30;;;;;;3562374;40;19933;-70
2021/05/08 10:21:42;;;;;;;;;;;19.60;74.80;;;;;;3562907;40;20060;-70
2021/05/08 10:24:08;;;;;;;;;;;19.50;75.30;;;;;;3560609;40;19977;-70
2021/05/08 10:26:34;;;;;;;;;;;19.30;75.20;;;;;;3568841;40;19980;-71
2021/05/08 10:29:00;;;;;;;;;;;19.00;73.70;;;;;;3560567;40;19933;-70
2021/05/08 10:31:26;;;;;;;;;;;18.90;75.90;;;;;;3559652;40;19934;-70
2021/05/08 10:33:52;;;;;;;;;;;19.00;77.00;;;;;;3555357;40;20195;-70
2021/05/08 10:36:33;;;;;;;;;;;19.00;76.30;;;;;;3555939;40;19965;-70
2021/05/08 10:39:04;;;;;;;;;;;19.00;76.00;;;;;;3561805;40;20033;-69
2021/05/08 10:41:44;;;;;;;;;;;19.00;78.30;;;;;;3569436;40;19959;-71
2021/05/08 10:44:10;;;;;;;;;;;19.30;74.50;;;;;;3561771;40;20027;-71
2021/05/08 10:46:51;;;;;;;;;;;19.10;74.90;;;;;;3569404;40;19945;-70
2021/05/08 10:49:18;;;;;;;;;;;19.20;74.90;;;;;;3562614;40;19937;-70
2021/05/08 10:52:01;;;;;;;;;;;19.30;75.70;;;;;;3563409;40;19937;-70
2021/05/08 10:54:45;;;;;;;;;;;19.20;75.60;;;;;;3559056;40;19940;-70
2021/05/08 10:57:11;;;;;;;;;;;;;;;;;;3559983;40;20274;-71
2021/05/08 10:59:37;;;;;;;;;;;;;;;;;;3560037;40;19940;-71
2021/05/08 11:02:03;;;;;;;;;;;;;;;;;;3559557;40;19929;-72
2021/05/08 11:04:29;;;;;;;;;;;;;;;;;;3574310;40;19933;-71
2021/05/08 11:06:55;;;;;;;;;;;;;;;;;;3569868;40;20230;-70
2021/05/08 11:09:21;;;;;;;;;;;;;;;;;;3569442;40;19955;-71
2021/05/08 11:11:47;;;;;;;;;;;;;;;;;;3560086;40;19935;-69
2021/05/08 11:14:13;;;;;;;;;;;;;;;;;;3569649;40;20182;-72
2021/05/08 11:16:40;;;;;;;;;;;;;;;;;;3569675;40;19929;-71
2021/05/08 11:19:06;;;;;;;;;;;;;;;;;;3571363;40;19933;-72
2021/05/08 11:21:32;;;;;;;;;;;;;;;;;;3573110;40;20227;-71
2021/05/08 11:23:59;;;;;;;;;;;;;;;;;;3570798;40;19929;-70
2021/05/08 11:26:34;;;;;;;;;;;;;;;;;;3575183;40;20016;-70
2021/05/08 11:29:00;;;;;;;;;;;;;;;;;;3573118;40;19952;-70
2021/05/08 11:31:26;;;;;;;;;;;;;;;;;;3570866;40;19929;-70
2021/05/08 11:33:52;;;;;;;;;;;;;;;;;;3576123;40;19947;-71
2021/05/08 11:36:18;;;;;;;;;;;;;;;;;;3578373;40;19929;-71
2021/05/08 11:38:44;;;;;;;;;;;;;;;;;;3578949;40;19929;-70
2021/05/08 11:41:10;;;;;;;;;;;;;;;;;;3569853;40;19929;-71
2021/05/08 11:43:36;;;;;;;;;;;;;;;;;;3570756;40;19965;-71
2021/05/08 11:46:02;;;;;;;;;;;;;;;;;;3574863;40;19936;-71
2021/05/08 11:48:27;;;;;;;;;;;;;;;;;;3561850;40;19929;-71
2021/05/08 11:50:53;;;;;;;;;;;;;;;;;;3571711;40;20179;-69
2021/05/08 11:53:19;;;;;;;;;;;;;;;;;;3571880;40;19936;-71
2021/05/08 11:55:45;;;;;;;;;;;;;;;;;;3570696;40;19929;-70
2021/05/08 11:58:11;;;;;;;;;;;;;;;;;;3570300;40;19929;-70
2021/05/08 12:00:37;;;;;;;;;;;;;;;;;;3561392;40;20305;-70
2021/05/08 12:03:03;;;;;;;;;;;;;;;;;;3571043;40;19940;-71
2021/05/08 12:05:29;;;;;;;;;;;;;;;;;;3570696;40;19945;-70
2021/05/08 12:07:55;;;;;;;;;;;;;;;;;;3570644;40;20282;-70
2021/05/08 12:10:21;;;;;;;;;;;;;;;;;;3570770;40;20202;-71
2021/05/08 12:12:47;;;;;;;;;;;;;;;;;;3570549;40;19929;-70
2021/05/08 12:15:13;;;;;;;;;;;;;;;;;;3577613;40;19929;-70
2021/05/08 12:17:39;;;;;;;;;;;;;;;;;;3561432;40;20000;-70
2021/05/08 12:20:04;;;;;;;;;;;;;;;;;;3570712;40;19936;-70
2021/05/08 12:22:30;;;;;;;;;;;;;;;;;;3570593;40;20039;-70
2021/05/08 12:24:57;;;;;;;;;;;;;;;;;;3569593;40;19929;-71
2021/05/08 12:27:23;;;;;;;;;;;;;;;;;;3570504;40;20322;-70
2021/05/08 12:29:57;;;;;;;;;;;18.80;75.70;;;;;;3570531;40;19929;-70
2021/05/08 12:32:22;;;;;;;;;;;18.20;81.50;;;;;;3571211;40;20287;-70
2021/05/08 12:34:54;;;;;;;;;;;18.30;81.60;;;;;;3576794;40;19940;-70
2021/05/08 12:37:20;;;;;;;;;;;18.40;80.30;;;;;;3570563;40;19941;-70
2021/05/08 12:39:47;;;;;;;;;;;18.40;80.30;;;;;;3573970;40;19932;-74
2021/05/08 12:42:13;;;;;;;;;;;18.50;80.40;;;;;;3571880;40;19933;-71
2021/05/08 12:44:40;;;;;;;;;;;18.30;79.80;;;;;;3569846;40;20380;-71
2021/05/08 12:47:20;;;;;;;;;;;18.30;80.50;;;;;;3569452;40;19980;-72
2021/05/08 12:50:02;;;;;;;;;;;18.40;80.80;;;;;;3570334;40;19937;-71
2021/05/08 12:52:28;;;;;;;;;;;18.50;80.00;;;;;;3561556;40;20326;-70
2021/05/08 12:54:55;;;;;;;;;;;18.60;81.90;;;;;;3560196;40;19933;-70
2021/05/08 12:57:21;;;;;;;;;;;;;;;;;;3569245;40;20273;-70
2021/05/08 12:59:47;;;;;;;;;;;;;;;;;;3576248;40;19937;-71
2021/05/08 13:02:13;;;;;;;;;;;;;;;;;;3560477;40;19929;-74
2021/05/08 13:04:39;;;;;;;;;;;;;;;;;;3570134;40;19952;-70
2021/05/08 13:07:04;;;;;;;;;;;;;;;;;;3570342;40;19936;-72
2021/05/08 13:09:30;;;;;;;;;;;;;;;;;;3560910;40;20297;-69
2021/05/08 13:11:56;;;;;;;;;;;;;;;;;;3570534;40;19929;-71
2021/05/08 13:14:22;;;;;;;;;;;;;;;;;;3574001;40;19928;-73
2021/05/08 13:16:49;;;;;;;;;;;;;;;;;;3573760;40;20031;-70
2021/05/08 13:19:16;;;;;;;;;;;;;;;;;;3575106;40;19937;-73
2021/05/08 13:21:42;;;;;;;;;;;;;;;;;;3570325;40;19936;-69
2021/05/08 13:24:08;;;;;;;;;;;;;;;;;;3570357;40;19936;-71
2021/05/08 13:26:34;;;;;;;;;;;;;;;;;;3570322;40;19936;-70
2021/05/08 13:29:00;;;;;;;;;;;;;;;;;;3559560;40;19929;-71
2021/05/08 13:31:26;;;;;;;;;;;;;;;;;;3570313;40;19929;-74
2021/05/08 13:33:52;;;;;;;;;;;;;;;;;;3569155;40;19929;-70
2021/05/08 13:36:19;;;;;;;;;;;;;;;;;;3571279;40;19936;-70
2021/05/08 13:38:45;;;;;;;;;;;;;;;;;;3571436;40;20175;-71
2021/05/08 13:41:11;;;;;;;;;;;;;;;;;;3569174;40;20297;-70
2021/05/08 13:43:38;;;;;;;;;;;18.70;81.00;;;;;;3571345;40;19929;-71
2021/05/08 13:46:03;;;;;;;;;;;18.30;80.90;;;;;;3571085;40;19939;-70
2021/05/08 13:48:29;;;;;;;;;;;18.30;81.80;;;;;;3569246;40;20261;-70
2021/05/08 13:50:54;;;;;;;;;;;18.30;81.80;;;;;;3570051;40;19933;-69
2021/05/08 13:53:20;;;;;;;;;;;18.40;82.50;;;;;;3573034;40;19933;-70
2021/05/08 13:55:46;;;;;;;;;;;18.40;81.70;;;;;;3563433;40;20283;-69
2021/05/08 13:58:13;;;;;;;;;;;18.50;81.90;;;;;;3569964;40;19933;-70
2021/05/08 14:00:40;;;;;;;;;;;18.60;82.50;;;;;;3570194;40;19945;-70
2021/05/08 14:03:05;;;;;;;;;;;18.60;81.90;;;;;;3569498;40;19948;-71
2021/05/08 14:05:31;;;;;;;;;;;18.60;81.40;;;;;;3561222;40;19965;-70
2021/05/08 14:07:57;;;;;;;;;;;18.70;81.20;;;;;;3569923;40;19945;-70
2021/05/08 14:10:23;;;;;;;;;;;18.50;81.30;;;;;;3570386;40;19940;-72
2021/05/08 14:12:48;;;;;;;;;;;18.50;81.70;;;;;;3569744;40;20011;-71
2021/05/08 14:15:14;;;;;;;;;;;18.50;80.80;;;;;;3576867;40;19932;-71
2021/05/08 14:17:41;;;;;;;;;;;18.70;81.80;;;;;;3569831;40;20019;-71
2021/05/08 14:20:07;;;;;;;;;;;18.80;80.20;;;;;;3569327;40;19933;-70
2021/05/08 14:22:36;;;;;;;;;;;;;;;;;;3569336;40;19996;-70
2021/05/08 14:25:02;;;;;;;;;;;;;;;;;;3569864;40;19969;-70
2021/05/08 14:27:28;;;;;;;;;;;;;;;;;;3569524;40;19929;-71
2021/05/08 14:29:54;;;;;;;;;;;;;;;;;;3569761;40;20160;-70
2021/05/08 14:32:21;;;;;;;;;;;;;;;;;;3560510;40;19937;-69
2021/05/08 14:34:46;;;;;;;;;;;;;;;;;;3569748;40;19955;-71
2021/05/08 14:37:14;;;;;;;;;;;;;;;;;;3568767;40;19929;-70
2021/05/08 14:39:40;;;;;;;;;;;;;;;;;;3560354;40;19973;-70
2021/05/08 14:42:06;;;;;;;;;;;;;;;;;;3569763;40;19929;-71
2021/05/08 14:44:32;;;;;;;;;;;;;;;;;;3570613;40;20014;-70
2021/05/08 14:46:58;;;;;;;;;;;;;;;;;;3574967;40;19941;-70
2021/05/08 14:49:25;;;;;;;;;;;;;;;;;;3569609;40;19933;-71
2021/05/08 14:51:51;;;;;;;;;;;;;;;;;;3569721;40;20286;-70
2021/05/08 14:54:17;;;;;;;;;;;;;;;;;;3569212;40;19937;-69
2021/05/08 14:56:43;;;;;;;;;;;18.80;81.80;;;;;;3569451;40;19929;-71
2021/05/08 14:59:09;;;;;;;;;;;19.10;82.80;;;;;;3568889;40;19933;-70
2021/05/08 15:01:35;;;;;;;;;;;19.00;81.90;;;;;;3569296;40;19937;-71
2021/05/08 15:04:00;;;;;;;;;;;18.90;82.50;;;;;;3560129;40;19941;-71
2021/05/08 15:06:26;;;;;;;;;;;18.90;82.60;;;;;;3571329;40;19933;-70
2021/05/08 15:08:52;;;;;;;;;;;18.90;83.90;;;;;;3571317;40;19940;-71
2021/05/08 15:11:17;;;;;;;;;;;18.80;84.10;;;;;;3571419;40;19940;-71
2021/05/08 15:13:44;;;;;;;;;;;18.90;82.10;;;;;;3569730;40;19945;-72
2021/05/08 15:16:10;;;;;;;;;;;18.80;81.80;;;;;;3561524;40;19945;-72
2021/05/08 15:18:38;;;;;;;;;;;;;;;;;;3570860;40;19934;-70
2021/05/08 15:21:04;;;;;;;;;;;;;;;;;;3561624;40;20015;-71
2021/05/08 15:23:30;;;;;;;;;;;;;;;;;;3577882;40;19929;-70
2021/05/08 15:25:56;;;;;;;;;;;;;;;;;;3569642;40;19929;-71
2021/05/08 15:28:22;;;;;;;;;;;;;;;;;;3572061;40;19955;-70
2021/05/08 15:30:48;;;;;;;;;;;;;;;;;;3573103;40;19972;-73
2021/05/08 15:33:14;;;;;;;;;;;;;;;;;;3575342;40;19929;-71
2021/05/08 15:35:39;;;;;;;;;;;;;;;;;;3570599;40;19955;-71
2021/05/08 15:38:05;;;;;;;;;;;;;;;;;;3573304;40;19928;-71
2021/05/08 15:40:31;;;;;;;;;;;;;;;;;;3574324;40;19929;-70
2021/05/08 15:42:57;;;;;;;;;;;;;;;;;;3570519;40;19936;-71
2021/05/08 15:45:23;;;;;;;;;;;;;;;;;;3575259;40;20277;-70
2021/05/08 15:47:49;;;;;;;;;;;;;;;;;;3570896;40;20028;-71
2021/05/08 15:50:15;;;;;;;;;;;;;;;;;;3571942;40;19929;-70
2021/05/08 15:52:41;;;;;;;;;;;;;;;;;;3570066;40;19941;-71
2021/05/08 15:55:07;;;;;;;;;;;;;;;;;;3571055;40;19930;-70
2021/05/08 15:57:34;;;;;;;;;;;;;;;;;;3570705;40;19929;-70
2021/05/08 16:00:00;;;;;;;;;;;;;;;;;;3571249;40;19985;-70
2021/05/08 16:02:26;;;;;;;;;;;;;;;;;;3570923;40;19929;-70
2021/05/08 16:04:52;;;;;;;;;;;;;;;;;;3571279;40;19933;-71